Kydon — SWBZ — position and weather

sailwx.info

Track history (hours):
 
Tides and Currents Weather Stations Pressure Air Temp Water Temp Dewpoint Dewpoint Depression Visibility Wind Speed Wind Dir Waves Ship Positions

Kydon

Last reported at 2016-Aug-27 09:25 UTC. Time now 2016-Aug-27 13:23 UTC.
Position N 37°15' E 023°50'.

Length 192 m; draft 6.1 m.

Type: Passenger vessel. MMSI: 239593000.

Date/timePositionNaut miles runAvg speedWind from/ knotsBaromVisibWave heightAir tempDewpointWater temp
2016-Aug-27 09:25N 37°15' E 023°50'1820.7
2016-Aug-27 08:33N 37°32' E 023°45'2020.5
2016-Aug-27 07:33N 37°51' E 023°37'6 5.5
2016-Aug-27 06:33N 37°57' E 023°38'0 0.0
2016-Aug-27 04:33N 37°57' E 023°38'0 0.0
2016-Aug-27 03:33N 37°57' E 023°38'5 5.4
2016-Aug-27 02:34N 37°51' E 023°39'2020.4
2016-Aug-27 01:33N 37°32' E 023°47'13 0.8
2016-Aug-26 09:16N 37°19' E 023°49'1520.6
2016-Aug-26 08:33N 37°33' E 023°44'2020.3
2016-Aug-26 07:34N 37°52' E 023°37'5 4.9
2016-Aug-26 06:33N 37°57' E 023°38'0 0.0
2016-Aug-26 04:33N 37°57' E 023°38'0 0.0
2016-Aug-26 03:33N 37°57' E 023°38'5 5.4
2016-Aug-26 02:33N 37°51' E 023°39'2020.3
2016-Aug-26 01:34N 37°32' E 023°47'14 0.9
2016-Aug-25 09:15N 37°18' E 023°49'1420.4
2016-Aug-25 08:33N 37°32' E 023°45'2020.2
2016-Aug-25 07:34N 37°51' E 023°36'6 6.3
2016-Aug-25 06:33N 37°57' E 023°38'0 0.0
2016-Aug-25 04:33N 37°57' E 023°38'0 0.0
2016-Aug-25 03:34N 37°57' E 023°38'5 5.1
2016-Aug-25 02:34N 37°52' E 023°39'2120.4
2016-Aug-25 01:33N 37°32' E 023°47'18 1.1
2016-Aug-24 09:21N 37°15' E 023°50'1720.5
2016-Aug-24 08:33N 37°31' E 023°45'2020.6
2016-Aug-24 07:34N 37°50' E 023°36'7 7.0
2016-Aug-24 06:33N 37°57' E 023°38'0 0.0
2016-Aug-24 04:33N 37°57' E 023°38'0 0.0
2016-Aug-24 03:33N 37°57' E 023°38'5 5.1
2016-Aug-24 02:34N 37°52' E 023°39'61 2.2
2016-Aug-22 22:32N 36°53' E 023°57'2020.2
2016-Aug-22 21:33N 37°12' E 023°51'2020.0
2016-Aug-22 20:33N 37°31' E 023°45'2020.3
2016-Aug-22 19:34N 37°50' E 023°36'7 6.8
2016-Aug-22 18:33N 37°57' E 023°38'0 0.0
2016-Aug-22 17:33N 37°57' E 023°38'0 0.0
2016-Aug-22 16:33N 37°57' E 023°38'0 0.0
2016-Aug-22 15:33N 37°57' E 023°38'0 0.0
2016-Aug-22 14:33N 37°57' E 023°38'0 0.0
2016-Aug-22 13:34N 37°57' E 023°38'0 0.0
2016-Aug-22 12:33N 37°57' E 023°38'0 0.0
2016-Aug-22 11:33N 37°57' E 023°38'0 0.0
2016-Aug-22 10:33N 37°57' E 023°38'0 0.0
2016-Aug-22 09:33N 37°57' E 023°38'0 0.0
2016-Aug-22 08:33N 37°57' E 023°38'0 0.0
2016-Aug-22 07:33N 37°57' E 023°38'0 0.0
2016-Aug-22 06:33N 37°57' E 023°38'0 0.0
2016-Aug-22 05:33N 37°57' E 023°38'0 0.0
2016-Aug-22 04:33N 37°57' E 023°38'0 0.0
2016-Aug-22 03:33N 37°57' E 023°38'4 4.0
2016-Aug-22 02:33N 37°53' E 023°38'2120.6
2016-Aug-22 01:33N 37°33' E 023°47'2121.1
2016-Aug-22 00:33N 37°13' E 023°52'6 0.4
2016-Aug-21 09:16N 37°19' E 023°49'1520.3
2016-Aug-21 08:33N 37°33' E 023°46'2020.5
2016-Aug-21 07:33N 37°52' E 023°37'5 4.8
2016-Aug-21 06:33N 37°57' E 023°38'0 0.0
2016-Aug-21 05:33N 37°57' E 023°38'0 0.0
2016-Aug-21 04:33N 37°57' E 023°38'0 0.0
2016-Aug-21 03:33N 37°57' E 023°38'3 2.8
2016-Aug-21 02:33N 37°54' E 023°37'2120.6
2016-Aug-21 01:34N 37°35' E 023°46'2121.0
2016-Aug-21 00:33N 37°14' E 023°50'4 0.3
2016-Aug-20 09:14N 37°18' E 023°49'1420.3
2016-Aug-20 08:33N 37°31' E 023°45'2020.4
2016-Aug-20 07:33N 37°50' E 023°37'7 6.7
2016-Aug-20 06:33N 37°57' E 023°38'0 0.0
2016-Aug-20 05:33N 37°57' E 023°38'0 0.0
2016-Aug-20 04:33N 37°57' E 023°38'0 0.0
2016-Aug-20 03:33N 37°57' E 023°38'3 3.4
2016-Aug-20 02:33N 37°53' E 023°38'2120.7
2016-Aug-20 01:33N 37°34' E 023°47'2120.9
2016-Aug-20 00:33N 37°13' E 023°52'2120.5
2016-Aug-19 23:33N 36°53' E 023°56'2120.9
2016-Aug-19 22:33N 36°33' E 024°00'2320.9
2016-Aug-19 21:29N 36°10' E 024°05'2521.3
2016-Aug-19 20:19N 35°46' E 024°11'97 8.6
2016-Aug-19 09:04N 37°21' E 023°48'1120.7
2016-Aug-19 08:33N 37°31' E 023°44'2020.5
2016-Aug-19 07:33N 37°51' E 023°37'6 6.1
2016-Aug-19 06:33N 37°57' E 023°38'0 0.0
2016-Aug-19 05:33N 37°57' E 023°38'0 0.0
2016-Aug-19 04:33N 37°57' E 023°38'0 0.0
2016-Aug-19 03:33N 37°57' E 023°38'3 3.2
2016-Aug-19 02:33N 37°54' E 023°38'2020.1
2016-Aug-19 01:33N 37°35' E 023°47'2121.1
2016-Aug-19 00:33N 37°14' E 023°51'2020.2
2016-Aug-18 23:33N 36°54' E 023°56'2121.2
2016-Aug-18 22:33N 36°33' E 024°01'2421.2
2016-Aug-18 21:27N 36°10' E 024°06'2021.3
2016-Aug-18 20:31N 35°51' E 024°10'20 3.2
2016-Aug-18 14:21N 35°31' E 024°12'1721.2
2016-Aug-18 13:33N 35°48' E 024°11'2321.1
2016-Aug-18 12:28N 36°10' E 024°07'2321.3
2016-Aug-18 11:23N 36°33' E 024°01'1720.7
2016-Aug-18 10:33N 36°50' E 023°58'2221.5
2016-Aug-18 09:34N 37°11' E 023°51'2121.2
2016-Aug-18 08:33N 37°31' E 023°45'2613.0
2016-Aug-18 06:33N 37°57' E 023°38'0 0.0
2016-Aug-18 05:33N 37°57' E 023°38'0 0.0
2016-Aug-18 04:33N 37°57' E 023°38'0 0.0
2016-Aug-18 03:33N 37°57' E 023°38'4 3.6
2016-Aug-18 02:34N 37°53' E 023°38'2020.3
2016-Aug-18 01:34N 37°34' E 023°47'2121.0
2016-Aug-18 00:33N 37°14' E 023°52'2020.2
2016-Aug-17 23:34N 36°54' E 023°56'2120.9
2016-Aug-17 22:33N 36°33' E 024°00'38 2.9
2016-Aug-17 09:33N 37°10' E 023°52'  
Track history (hours):
 
Tides and Currents Weather Stations Pressure Air Temp Water Temp Dewpoint Dewpoint Depression Visibility Wind Speed Wind Dir Waves Ship Positions

Kydon

Last reported at 2016-Aug-27 09:25 UTC. Time now 2016-Aug-27 13:23 UTC.
Position N 37°15' E 023°50'.

Length 192 m; draft 6.1 m.

Type: Passenger vessel. MMSI: 239593000.

Date/timePositionNaut miles runAvg speedWind from/ knotsBaromVisibWave heightAir tempDewpointWater temp
2016-Aug-27 09:25N 37°15' E 023°50'1820.7
2016-Aug-27 08:33N 37°32' E 023°45'2020.5
2016-Aug-27 07:33N 37°51' E 023°37'6 5.5
2016-Aug-27 06:33N 37°57' E 023°38'0 0.0
2016-Aug-27 04:33N 37°57' E 023°38'0 0.0
2016-Aug-27 03:33N 37°57' E 023°38'5 5.4
2016-Aug-27 02:34N 37°51' E 023°39'2020.4
2016-Aug-27 01:33N 37°32' E 023°47'13 0.8
2016-Aug-26 09:16N 37°19' E 023°49'1520.6
2016-Aug-26 08:33N 37°33' E 023°44'2020.3
2016-Aug-26 07:34N 37°52' E 023°37'5 4.9
2016-Aug-26 06:33N 37°57' E 023°38'0 0.0
2016-Aug-26 04:33N 37°57' E 023°38'0 0.0
2016-Aug-26 03:33N 37°57' E 023°38'5 5.4
2016-Aug-26 02:33N 37°51' E 023°39'2020.3
2016-Aug-26 01:34N 37°32' E 023°47'14 0.9
2016-Aug-25 09:15N 37°18' E 023°49'1420.4
2016-Aug-25 08:33N 37°32' E 023°45'2020.2
2016-Aug-25 07:34N 37°51' E 023°36'6 6.3
2016-Aug-25 06:33N 37°57' E 023°38'0 0.0
2016-Aug-25 04:33N 37°57' E 023°38'0 0.0
2016-Aug-25 03:34N 37°57' E 023°38'5 5.1
2016-Aug-25 02:34N 37°52' E 023°39'2120.4
2016-Aug-25 01:33N 37°32' E 023°47'18 1.1
2016-Aug-24 09:21N 37°15' E 023°50'1720.5
2016-Aug-24 08:33N 37°31' E 023°45'2020.6
2016-Aug-24 07:34N 37°50' E 023°36'7 7.0
2016-Aug-24 06:33N 37°57' E 023°38'0 0.0
2016-Aug-24 04:33N 37°57' E 023°38'0 0.0
2016-Aug-24 03:33N 37°57' E 023°38'5 5.1
2016-Aug-24 02:34N 37°52' E 023°39'61 2.2
2016-Aug-22 22:32N 36°53' E 023°57'2020.2
2016-Aug-22 21:33N 37°12' E 023°51'2020.0
2016-Aug-22 20:33N 37°31' E 023°45'2020.3
2016-Aug-22 19:34N 37°50' E 023°36'7 6.8
2016-Aug-22 18:33N 37°57' E 023°38'0 0.0
2016-Aug-22 17:33N 37°57' E 023°38'0 0.0
2016-Aug-22 16:33N 37°57' E 023°38'0 0.0
2016-Aug-22 15:33N 37°57' E 023°38'0 0.0
2016-Aug-22 14:33N 37°57' E 023°38'0 0.0
2016-Aug-22 13:34N 37°57' E 023°38'0 0.0
2016-Aug-22 12:33N 37°57' E 023°38'0 0.0
2016-Aug-22 11:33N 37°57' E 023°38'0 0.0
2016-Aug-22 10:33N 37°57' E 023°38'0 0.0
2016-Aug-22 09:33N 37°57' E 023°38'0 0.0
2016-Aug-22 08:33N 37°57' E 023°38'0 0.0
2016-Aug-22 07:33N 37°57' E 023°38'0 0.0
2016-Aug-22 06:33N 37°57' E 023°38'0 0.0
2016-Aug-22 05:33N 37°57' E 023°38'0 0.0
2016-Aug-22 04:33N 37°57' E 023°38'0 0.0
2016-Aug-22 03:33N 37°57' E 023°38'4 4.0
2016-Aug-22 02:33N 37°53' E 023°38'2120.6
2016-Aug-22 01:33N 37°33' E 023°47'2121.1
2016-Aug-22 00:33N 37°13' E 023°52'6 0.4
2016-Aug-21 09:16N 37°19' E 023°49'1520.3
2016-Aug-21 08:33N 37°33' E 023°46'2020.5
2016-Aug-21 07:33N 37°52' E 023°37'5 4.8
2016-Aug-21 06:33N 37°57' E 023°38'0 0.0
2016-Aug-21 05:33N 37°57' E 023°38'0 0.0
2016-Aug-21 04:33N 37°57' E 023°38'0 0.0
2016-Aug-21 03:33N 37°57' E 023°38'3 2.8
2016-Aug-21 02:33N 37°54' E 023°37'2120.6
2016-Aug-21 01:34N 37°35' E 023°46'2121.0
2016-Aug-21 00:33N 37°14' E 023°50'4 0.3
2016-Aug-20 09:14N 37°18' E 023°49'1420.3
2016-Aug-20 08:33N 37°31' E 023°45'2020.4
2016-Aug-20 07:33N 37°50' E 023°37'7 6.7
2016-Aug-20 06:33N 37°57' E 023°38'0 0.0
2016-Aug-20 05:33N 37°57' E 023°38'0 0.0
2016-Aug-20 04:33N 37°57' E 023°38'0 0.0
2016-Aug-20 03:33N 37°57' E 023°38'3 3.4
2016-Aug-20 02:33N 37°53' E 023°38'2120.7
2016-Aug-20 01:33N 37°34' E 023°47'2120.9
2016-Aug-20 00:33N 37°13' E 023°52'2120.5
2016-Aug-19 23:33N 36°53' E 023°56'2120.9
2016-Aug-19 22:33N 36°33' E 024°00'2320.9
2016-Aug-19 21:29N 36°10' E 024°05'2521.3
2016-Aug-19 20:19N 35°46' E 024°11'97 8.6
2016-Aug-19 09:04N 37°21' E 023°48'1120.7
2016-Aug-19 08:33N 37°31' E 023°44'2020.5
2016-Aug-19 07:33N 37°51' E 023°37'6 6.1
2016-Aug-19 06:33N 37°57' E 023°38'0 0.0
2016-Aug-19 05:33N 37°57' E 023°38'0 0.0
2016-Aug-19 04:33N 37°57' E 023°38'0 0.0
2016-Aug-19 03:33N 37°57' E 023°38'3 3.2
2016-Aug-19 02:33N 37°54' E 023°38'2020.1
2016-Aug-19 01:33N 37°35' E 023°47'2121.1
2016-Aug-19 00:33N 37°14' E 023°51'2020.2
2016-Aug-18 23:33N 36°54' E 023°56'2121.2
2016-Aug-18 22:33N 36°33' E 024°01'2421.2
2016-Aug-18 21:27N 36°10' E 024°06'2021.3
2016-Aug-18 20:31N 35°51' E 024°10'20 3.2
2016-Aug-18 14:21N 35°31' E 024°12'1721.2
2016-Aug-18 13:33N 35°48' E 024°11'2321.1
2016-Aug-18 12:28N 36°10' E 024°07'2321.3
2016-Aug-18 11:23N 36°33' E 024°01'1720.7
2016-Aug-18 10:33N 36°50' E 023°58'2221.5
2016-Aug-18 09:34N 37°11' E 023°51'2121.2
2016-Aug-18 08:33N 37°31' E 023°45'2613.0
2016-Aug-18 06:33N 37°57' E 023°38'0 0.0
2016-Aug-18 05:33N 37°57' E 023°38'0 0.0
2016-Aug-18 04:33N 37°57' E 023°38'0 0.0
2016-Aug-18 03:33N 37°57' E 023°38'4 3.6
2016-Aug-18 02:34N 37°53' E 023°38'2020.3
2016-Aug-18 01:34N 37°34' E 023°47'2121.0
2016-Aug-18 00:33N 37°14' E 023°52'2020.2
2016-Aug-17 23:34N 36°54' E 023°56'2120.9
2016-Aug-17 22:33N 36°33' E 024°00'38 2.9
2016-Aug-17 09:33N 37°10' E 023°52'  

Dump ship's entire track history